createdAt,value
2023-03-12T00:04:27.200Z,6.65
2023-03-12T00:09:28.926Z,5.82
2023-03-12T00:14:30.399Z,5.03
2023-03-12T00:19:31.866Z,6.25
2023-03-12T00:24:33.301Z,5.90
2023-03-12T00:29:35.814Z,6.28
2023-03-12T00:39:38.608Z,8.43
2023-03-12T00:44:40.206Z,5.68
2023-03-12T00:49:41.793Z,6.20
2023-03-12T00:54:43.237Z,4.50
2023-03-12T00:59:44.782Z,5.47
2023-03-12T01:04:46.226Z,6.90
2023-03-12T01:09:47.675Z,5.57
2023-03-12T01:14:49.118Z,3.70
2023-03-12T01:19:50.582Z,5.50
2023-03-12T01:24:52.037Z,3.97
2023-03-12T01:29:53.590Z,7.88
2023-03-12T01:34:55.385Z,5.55
2023-03-12T01:39:56.843Z,5.13
2023-03-12T01:45:01.218Z,5.68
2023-03-12T01:50:05.736Z,5.80
2023-03-12T02:00:24.020Z,6.35
2023-03-12T02:05:43.682Z,3.63
2023-03-12T02:10:46.272Z,6.93
2023-03-12T02:15:48.546Z,3.70
2023-03-12T02:20:56.665Z,4.57
2023-03-12T02:25:59.910Z,4.32
2023-03-12T02:31:03.576Z,5.40
2023-03-12T02:36:06.320Z,4.55
2023-03-12T02:41:28.790Z,5.05
2023-03-12T02:46:36.099Z,7.15
2023-03-12T02:51:38.364Z,4.10
2023-03-12T03:02:07.212Z,5.07
2023-03-12T03:07:15.569Z,3.15
2023-03-12T03:12:17.537Z,5.80
2023-03-12T03:17:19.244Z,4.97
2023-03-12T03:22:21.616Z,7.75
2023-03-12T03:27:23.192Z,4.25
2023-03-12T03:32:25.394Z,6.93
2023-03-12T03:37:26.965Z,4.22
2023-03-12T03:42:28.539Z,8.80
2023-03-12T03:47:30.158Z,4.38
2023-03-12T03:52:32.292Z,2.95
2023-03-12T03:57:34.121Z,3.38
2023-03-12T04:02:35.841Z,5.03
2023-03-12T04:07:37.518Z,4.32
2023-03-12T04:12:39.205Z,3.67
2023-03-12T04:17:40.787Z,2.97
2023-03-12T04:22:43.577Z,4.85
2023-03-12T04:27:45.760Z,4.10
2023-03-12T04:32:47.342Z,3.90
2023-03-12T04:37:49.444Z,3.92
2023-03-12T04:47:54.424Z,4.63
2023-03-12T04:52:56.211Z,4.05
2023-03-12T04:57:57.834Z,3.70
2023-03-12T05:02:59.889Z,5.20
2023-03-12T05:08:03.102Z,2.35
2023-03-12T05:13:11.849Z,4.10
2023-03-12T05:18:13.711Z,2.53
2023-03-12T05:23:15.291Z,4.57
2023-03-12T05:28:17.066Z,5.18
2023-03-12T05:33:18.603Z,4.40
2023-03-12T05:38:20.251Z,4.32
2023-03-12T05:43:22.896Z,4.03
2023-03-12T05:48:25.253Z,3.35
2023-03-12T05:53:26.852Z,2.80
2023-03-12T05:58:28.911Z,3.20
2023-03-12T06:03:30.779Z,5.00
2023-03-12T06:13:34.871Z,4.50
2023-03-12T06:18:37.731Z,5.45
2023-03-12T06:23:40.376Z,3.28
2023-03-12T06:28:48.794Z,3.58
2023-03-12T06:33:50.880Z,3.45
2023-03-12T06:38:52.362Z,3.08
2023-03-12T06:43:53.826Z,6.40
2023-03-12T06:48:55.284Z,5.32
2023-03-12T06:53:56.729Z,5.55
2023-03-12T06:58:58.242Z,3.50
2023-03-12T07:03:59.693Z,3.40
2023-03-12T07:09:03.473Z,2.85
2023-03-12T07:14:04.915Z,4.57
2023-03-12T07:19:06.491Z,3.80
2023-03-12T07:24:08.860Z,4.82
2023-03-12T07:29:10.342Z,2.97
2023-03-12T07:34:11.971Z,4.13
2023-03-12T07:39:13.568Z,6.32
2023-03-12T07:44:15.192Z,2.53
2023-03-12T07:49:16.636Z,6.38
2023-03-12T07:54:18.092Z,5.80
2023-03-12T07:59:19.655Z,6.15
2023-03-12T08:04:21.591Z,4.72
2023-03-12T08:09:23.138Z,4.53
2023-03-12T08:14:24.635Z,3.33
2023-03-12T08:19:27.095Z,7.18
2023-03-12T08:24:28.642Z,3.15
2023-03-12T08:29:30.158Z,2.80
2023-03-12T08:34:31.738Z,4.82
2023-03-12T08:39:35.779Z,2.97
2023-03-12T08:44:37.284Z,4.63
2023-03-12T08:49:38.764Z,6.40
2023-03-12T08:54:51.494Z,3.28
2023-03-12T08:59:52.939Z,4.15
2023-03-12T09:04:57.166Z,4.47
2023-03-12T09:09:58.711Z,3.55
2023-03-12T09:15:04.737Z,5.40
2023-03-12T09:20:08.814Z,3.33
2023-03-12T09:25:14.272Z,3.17
2023-03-12T09:30:20.932Z,4.00
2023-03-12T09:35:22.465Z,5.95
2023-03-12T09:40:29.037Z,7.32
2023-03-12T09:45:36.355Z,4.50
2023-03-12T09:50:43.659Z,5.90
2023-03-12T09:55:49.165Z,3.47
2023-03-12T10:00:55.142Z,3.40
2023-03-12T10:06:09.805Z,5.93
2023-03-12T10:11:25.232Z,4.03
2023-03-12T10:16:53.599Z,2.13
2023-03-12T10:22:14.430Z,1.48
2023-03-12T10:27:18.604Z,2.83
2023-03-12T10:32:28.827Z,2.83
2023-03-12T10:37:52.846Z,2.55
2023-03-12T10:42:54.940Z,2.08
2023-03-12T10:53:22.568Z,3.10
2023-03-12T10:58:25.508Z,4.38
2023-03-12T11:03:27.568Z,3.97
2023-03-12T11:08:31.926Z,4.32
2023-03-12T11:13:40.657Z,2.95
2023-03-12T11:18:59.939Z,2.50
2023-03-12T11:24:07.518Z,4.60
2023-03-12T11:29:17.013Z,2.42
2023-03-12T11:34:24.604Z,3.30
2023-03-12T11:39:40.381Z,4.63
2023-03-12T11:44:51.005Z,2.83
2023-03-12T11:50:27.328Z,4.80
2023-03-12T11:56:13.748Z,1.80
2023-03-12T12:01:36.044Z,3.10
2023-03-12T12:06:55.740Z,3.42
2023-03-12T12:12:32.816Z,3.25
2023-03-12T12:18:11.154Z,4.43
2023-03-12T12:23:30.019Z,3.47
2023-03-12T12:29:12.180Z,3.88
2023-03-12T12:34:44.478Z,1.45
2023-03-12T12:39:50.052Z,2.75
2023-03-12T12:44:53.861Z,3.47
2023-03-12T12:49:58.981Z,2.53
2023-03-12T12:55:50.483Z,3.85
2023-03-12T13:01:00.472Z,2.22
2023-03-12T13:06:04.568Z,2.25
2023-03-12T13:11:23.747Z,3.08
2023-03-12T13:16:33.221Z,4.78
2023-03-12T13:21:48.274Z,1.17
2023-03-12T13:27:19.486Z,3.90
2023-03-12T13:32:36.921Z,6.38
2023-03-12T13:37:53.720Z,3.38
2023-03-12T13:43:16.872Z,4.88
2023-03-12T13:48:20.875Z,3.70
2023-03-12T13:53:40.475Z,3.30
2023-03-12T14:05:56.174Z,5.22
2023-03-12T14:11:50.636Z,2.40
2023-03-12T14:36:58.086Z,2.10
2023-03-12T14:42:07.949Z,1.90
2023-03-12T14:47:20.789Z,1.83
2023-03-12T14:52:26.232Z,3.40
2023-03-12T14:57:27.955Z,3.05
2023-03-12T15:02:31.433Z,4.05
2023-03-12T15:07:37.354Z,5.18
2023-03-12T15:12:38.901Z,3.75
2023-03-12T15:17:40.442Z,2.25
2023-03-12T15:22:42.275Z,4.13
2023-03-12T15:27:43.732Z,5.80
2023-03-12T15:33:13.173Z,2.28
2023-03-12T15:38:16.917Z,8.77
2023-03-12T15:43:21.546Z,2.63
2023-03-12T15:48:36.276Z,4.38
2023-03-12T15:53:37.737Z,7.55
2023-03-12T15:58:41.712Z,5.50
2023-03-12T16:03:45.562Z,8.68
2023-03-12T16:08:51.477Z,5.68
2023-03-12T16:14:01.660Z,5.22
2023-03-12T16:19:03.894Z,7.32
2023-03-12T16:24:05.503Z,4.07
2023-03-12T16:29:06.980Z,5.25
2023-03-12T16:34:11.277Z,6.18
2023-03-12T16:40:23.976Z,4.40
2023-03-12T16:45:37.258Z,5.53
2023-03-12T16:50:39.012Z,4.55
2023-03-12T16:55:47.186Z,6.78
2023-03-12T17:00:49.467Z,5.45
2023-03-12T17:05:51.033Z,6.10
2023-03-12T17:11:26.989Z,6.95
2023-03-12T17:16:29.249Z,9.35
2023-03-12T17:21:30.948Z,5.22
2023-03-12T17:26:32.697Z,6.50
2023-03-12T17:31:37.674Z,6.45
2023-03-12T17:36:40.371Z,7.47
2023-03-12T17:41:42.606Z,4.57
2023-03-12T17:46:56.521Z,5.10
2023-03-12T17:52:03.162Z,4.32
2023-03-12T17:57:04.740Z,3.75
2023-03-12T18:02:07.070Z,5.18
2023-03-12T18:07:11.580Z,3.63
2023-03-12T18:12:13.221Z,4.20
2023-03-12T18:17:22.734Z,3.40
2023-03-12T18:22:24.559Z,4.43
2023-03-12T18:27:26.144Z,2.35
2023-03-12T18:32:30.688Z,3.63
2023-03-12T18:37:37.665Z,2.40
2023-03-12T18:42:44.280Z,2.60
2023-03-12T18:47:50.210Z,3.22
2023-03-12T18:52:51.843Z,3.17
2023-03-12T18:57:53.361Z,3.55
2023-03-12T19:02:55.106Z,3.45
2023-03-12T19:08:26.763Z,2.20
2023-03-12T19:13:28.343Z,2.35
2023-03-12T19:18:30.298Z,2.22
2023-03-12T19:23:39.314Z,2.40
2023-03-12T19:28:42.034Z,2.22
2023-03-12T19:33:44.987Z,5.38
2023-03-12T19:38:54.238Z,3.92
2023-03-12T19:43:55.887Z,2.85
2023-03-12T19:49:00.332Z,3.40
2023-03-12T19:54:01.800Z,2.83
2023-03-12T19:59:03.276Z,4.13
2023-03-12T20:04:07.885Z,4.10
2023-03-12T20:09:09.343Z,3.28
2023-03-12T20:14:10.819Z,2.70
2023-03-12T20:19:12.268Z,5.00
2023-03-12T20:24:13.945Z,3.67
2023-03-12T20:29:15.521Z,3.72
2023-03-12T20:34:17.007Z,5.25
2023-03-12T20:39:18.468Z,2.63
2023-03-12T20:44:19.913Z,4.18
2023-03-12T20:49:21.368Z,2.50
2023-03-12T20:54:22.961Z,3.75
2023-03-12T20:59:24.438Z,4.47
2023-03-12T21:04:25.904Z,3.60
2023-03-12T21:09:27.351Z,4.95
2023-03-12T21:14:28.975Z,3.08
2023-03-12T21:19:30.930Z,2.65
2023-03-12T21:29:39.774Z,3.42
2023-03-12T21:34:41.312Z,3.90
2023-03-12T21:40:01.227Z,6.00
2023-03-12T21:45:05.774Z,4.85
2023-03-12T21:50:08.614Z,3.42
2023-03-12T21:55:10.756Z,4.55
2023-03-12T22:00:15.740Z,5.10
2023-03-12T22:05:17.517Z,5.25
2023-03-12T22:10:19.064Z,6.85
2023-03-12T22:15:26.765Z,8.18
2023-03-12T22:20:35.169Z,8.48
2023-03-12T22:25:38.866Z,7.88
2023-03-12T22:30:40.571Z,8.27
2023-03-12T22:35:46.125Z,9.52
2023-03-12T22:40:48.093Z,8.30
2023-03-12T22:45:53.797Z,8.07
2023-03-12T22:50:55.366Z,9.93
2023-03-12T22:56:03.028Z,10.48
2023-03-12T23:01:10.903Z,10.52
2023-03-12T23:06:15.322Z,7.90
2023-03-12T23:11:17.848Z,6.75
2023-03-12T23:16:22.540Z,9.25
2023-03-12T23:21:24.908Z,9.65
2023-03-12T23:26:28.521Z,11.18
2023-03-12T23:31:30.103Z,10.75
2023-03-12T23:36:31.600Z,10.90
2023-03-12T23:41:33.079Z,12.27
2023-03-12T23:46:34.653Z,10.10
2023-03-12T23:51:38.870Z,11.73
2023-03-12T23:56:41.168Z,10.95
